Aérodrome :
LOGIN :

S'inscrire | Disclaimer

   EN    FR    IT 

 










Légende :    VFR   VFR Marginal   IFR   IFR Intensif   IFR Très Intensif
Visi : 
Plafond : 
>= 8 km
>= 3000ft
5 à 8 km
1000 à 3000 ft
1500m à 5 km
500 à 1000 ft
800 à 1500m
200 à 500 ft
< 800m
< 200 ft
Symboles :   Orages  Brouillard  Fortes neiges  Fortes précipitations  Vent > 20 kt
SIGMETs :   Divers  Orages  Givrage  Turbulence  Onde Orograph.  Cendres Volcan.






- Altitude de l'aérodrome : 284 ft


EGUW - RAF Wattisham

DERNIER METAR :
  • 291220Z 20011KT 4500 RA BKN004 OVC008 10/10 Q1002 TEMPO 7000 -RA BKN007 RMK YLO2 TEMPO GRN

METARs EXPIRÉS :
  • 291150Z 20011KT 8000 -RA BKN005 10/10 Q1002 TEMPO 3000 RADZ BKN004 RMK YLO1 TEMPO YLO2
  • 291120Z 20010KT 4500 -DZ BKN005 10/09 Q1002 TEMPO 2000 DZ BKN004 RMK YLO1 TEMPO YLO2
  • 291111Z 20009KT 3500 -DZ OVC007 11/09 Q1002 TEMPO BKN004 RMK YLO1 TEMPO YLO2
  • 291050Z 20013KT 9999 BKN010 11/09 Q1003 TEMPO 4000 -RADZ BKN006 RMK GRN TEMPO YLO1
  • 291020Z 20013KT 9999 BKN010 OVC020 11/09 Q1003 TEMPO 4000 -DZ BKN005 RMK GRN TEMPO YLO1
  • 290950Z 20011KT 9999 SCT008 OVC026 10/09 Q1003 TEMPO 3000 DZ BKN004 RMK GRN TEMPO YLO2
  • 290935Z 20012KT 5000 -DZ BKN007 10/09 Q1004 TEMPO 3000 DZ BKN004 RMK GRN TEMPO YLO2
  • 290920Z 20010KT 4000 -DZ BKN004 10/09 Q1004 TEMPO 9999 NSW BKN006 RMK YLO2 TEMPO YLO1
  • 290904Z 19008KT 9999 BKN006 10/09 Q1004 TEMPO 3000 -DZ BKN004 RMK YLO1 TEMPO YLO2
  • 290854Z 19009KT 3200 -DZ OVC004 10/09 Q1004 TEMPO 4000 BKN006 RMK YLO2 TEMPO YLO1
  • 290820Z 20010KT 9999 BKN011 OVC026 10/08 Q1004 TEMPO 4000 -RADZ RMK GRN TEMPO GRN
  • 290750Z 20011KT 9999 SCT009 BKN250 10/08 Q1004 TEMPO FEW010 RMK GRN TEMPO BLU

TAF TAF EGUW
Valide du 29 à 12h jusqu'au 29 à 21h UTC


291035Z 2912/2921 33006KT 9999 BKN010
TEMPO 2912/2915 4000 RADZ BKN005
PROB40
TEMPO 2912/2915 3000 RADZ BKN004
BECMG 2915/2918 BKN015
TEMPO 2915/2921 3000 RADZ
TEMPO 2918/2921 7000 -RADZ BKN009



MET'MAP, la Météo Aéronautique d'un coup d'oeil ! - Copyright ORBIFLY Décembre 2007 - Disclaimer

ORBIFLY MET'MAP TEAM :

Programmation & Développement : Alexandra Zaïnal
Sur une idée originale de : Baudouin d'Aumeries
Soutien technique & logistique : Manuel Goepfert
Assistance : Marc-Olivier Méhu




SOURCES & CREDITS :

   NOAA